sensor_id;sensor_type;location;lat;lon;timestamp;P1;durP1;ratioP1;P2;durP2;ratioP2
56239;SDS011;42154;51.992;5.896;2022-10-31T00:02:04;13.13;;;7.65;;
56239;SDS011;42154;51.992;5.896;2022-10-31T00:04:30;12.32;;;6.95;;
56239;SDS011;42154;51.992;5.896;2022-10-31T00:06:56;13.60;;;8.18;;
56239;SDS011;42154;51.992;5.896;2022-10-31T00:09:22;13.43;;;8.88;;
56239;SDS011;42154;51.992;5.896;2022-10-31T00:11:48;12.80;;;8.55;;
56239;SDS011;42154;51.992;5.896;2022-10-31T00:14:13;12.27;;;8.48;;
56239;SDS011;42154;51.992;5.896;2022-10-31T00:16:39;13.95;;;8.30;;
56239;SDS011;42154;51.992;5.896;2022-10-31T00:19:06;12.95;;;8.70;;
56239;SDS011;42154;51.992;5.896;2022-10-31T00:21:33;12.73;;;7.80;;
56239;SDS011;42154;51.992;5.896;2022-10-31T00:24:00;10.70;;;7.50;;
56239;SDS011;42154;51.992;5.896;2022-10-31T00:26:30;11.40;;;7.18;;
56239;SDS011;42154;51.992;5.896;2022-10-31T00:31:23;11.35;;;7.53;;
56239;SDS011;42154;51.992;5.896;2022-10-31T00:33:49;13.50;;;8.70;;
56239;SDS011;42154;51.992;5.896;2022-10-31T00:36:17;17.75;;;10.90;;
56239;SDS011;42154;51.992;5.896;2022-10-31T00:38:45;15.65;;;9.63;;
56239;SDS011;42154;51.992;5.896;2022-10-31T00:41:12;14.70;;;10.02;;
56239;SDS011;42154;51.992;5.896;2022-10-31T00:43:40;12.98;;;8.73;;
56239;SDS011;42154;51.992;5.896;2022-10-31T00:46:07;12.82;;;8.98;;
56239;SDS011;42154;51.992;5.896;2022-10-31T00:48:33;12.73;;;8.20;;
56239;SDS011;42154;51.992;5.896;2022-10-31T00:50:59;14.93;;;9.88;;
56239;SDS011;42154;51.992;5.896;2022-10-31T00:53:25;21.25;;;12.40;;
56239;SDS011;42154;51.992;5.896;2022-10-31T00:55:51;24.10;;;13.93;;
56239;SDS011;42154;51.992;5.896;2022-10-31T00:58:18;18.15;;;11.45;;
56239;SDS011;42154;51.992;5.896;2022-10-31T01:00:44;20.58;;;11.13;;
56239;SDS011;42154;51.992;5.896;2022-10-31T01:03:11;16.95;;;9.88;;
56239;SDS011;42154;51.992;5.896;2022-10-31T01:05:40;14.63;;;10.00;;
56239;SDS011;42154;51.992;5.896;2022-10-31T01:08:06;13.70;;;9.32;;
56239;SDS011;42154;51.992;5.896;2022-10-31T01:10:32;17.63;;;9.55;;
56239;SDS011;42154;51.992;5.896;2022-10-31T01:12:58;11.50;;;8.80;;
56239;SDS011;42154;51.992;5.896;2022-10-31T01:15:24;15.40;;;9.05;;
56239;SDS011;42154;51.992;5.896;2022-10-31T01:17:49;13.00;;;8.95;;
56239;SDS011;42154;51.992;5.896;2022-10-31T01:20:15;13.95;;;9.25;;
56239;SDS011;42154;51.992;5.896;2022-10-31T01:22:42;12.30;;;8.98;;
56239;SDS011;42154;51.992;5.896;2022-10-31T01:25:08;15.52;;;9.23;;
56239;SDS011;42154;51.992;5.896;2022-10-31T01:27:34;14.05;;;9.40;;
56239;SDS011;42154;51.992;5.896;2022-10-31T01:30:00;13.60;;;9.52;;
56239;SDS011;42154;51.992;5.896;2022-10-31T01:32:27;15.15;;;9.55;;
56239;SDS011;42154;51.992;5.896;2022-10-31T01:34:54;11.27;;;8.75;;
56239;SDS011;42154;51.992;5.896;2022-10-31T01:37:21;14.43;;;9.40;;
56239;SDS011;42154;51.992;5.896;2022-10-31T01:39:50;13.75;;;10.25;;
56239;SDS011;42154;51.992;5.896;2022-10-31T01:42:17;15.30;;;10.35;;
56239;SDS011;42154;51.992;5.896;2022-10-31T01:44:54;16.98;;;10.48;;
56239;SDS011;42154;51.992;5.896;2022-10-31T01:50:28;12.40;;;9.35;;
56239;SDS011;42154;51.992;5.896;2022-10-31T01:52:59;13.10;;;10.32;;
56239;SDS011;42154;51.992;5.896;2022-10-31T01:55:35;12.27;;;10.50;;
56239;SDS011;42154;51.992;5.896;2022-10-31T01:58:11;16.58;;;10.68;;
56239;SDS011;42154;51.992;5.896;2022-10-31T02:00:48;15.10;;;10.45;;
56239;SDS011;42154;51.992;5.896;2022-10-31T02:03:16;14.47;;;10.23;;
56239;SDS011;42154;51.992;5.896;2022-10-31T02:05:45;15.02;;;11.00;;
56239;SDS011;42154;51.992;5.896;2022-10-31T02:10:57;17.25;;;10.52;;
56239;SDS011;42154;51.992;5.896;2022-10-31T02:13:25;15.10;;;10.40;;
56239;SDS011;42154;51.992;5.896;2022-10-31T02:15:54;16.92;;;11.80;;
56239;SDS011;42154;51.992;5.896;2022-10-31T02:18:23;16.10;;;10.97;;
56239;SDS011;42154;51.992;5.896;2022-10-31T02:26:31;18.08;;;10.93;;
56239;SDS011;42154;51.992;5.896;2022-10-31T02:35:00;14.80;;;10.65;;
56239;SDS011;42154;51.992;5.896;2022-10-31T02:37:51;15.23;;;11.13;;
56239;SDS011;42154;51.992;5.896;2022-10-31T02:40:37;13.82;;;10.85;;
56239;SDS011;42154;51.992;5.896;2022-10-31T02:46:14;16.83;;;11.20;;
56239;SDS011;42154;51.992;5.896;2022-10-31T02:48:49;16.83;;;11.68;;
56239;SDS011;42154;51.992;5.896;2022-10-31T02:51:20;14.73;;;11.00;;
56239;SDS011;42154;51.992;5.896;2022-10-31T02:53:46;15.93;;;11.20;;
56239;SDS011;42154;51.992;5.896;2022-10-31T02:56:13;13.45;;;10.75;;
56239;SDS011;42154;51.992;5.896;2022-10-31T02:58:53;18.50;;;11.27;;
56239;SDS011;42154;51.992;5.896;2022-10-31T03:01:27;15.00;;;10.30;;
56239;SDS011;42154;51.992;5.896;2022-10-31T03:07:11;17.90;;;11.05;;
56239;SDS011;42154;51.992;5.896;2022-10-31T03:17:27;14.40;;;10.80;;
56239;SDS011;42154;51.992;5.896;2022-10-31T03:20:10;16.38;;;10.60;;
56239;SDS011;42154;51.992;5.896;2022-10-31T03:22:36;13.02;;;10.23;;
56239;SDS011;42154;51.992;5.896;2022-10-31T03:25:05;14.90;;;10.07;;
56239;SDS011;42154;51.992;5.896;2022-10-31T03:27:34;17.92;;;11.00;;
56239;SDS011;42154;51.992;5.896;2022-10-31T03:30:03;12.63;;;10.07;;
56239;SDS011;42154;51.992;5.896;2022-10-31T03:32:42;17.77;;;10.85;;
56239;SDS011;42154;51.992;5.896;2022-10-31T03:35:12;14.65;;;9.98;;
56239;SDS011;42154;51.992;5.896;2022-10-31T03:37:42;15.50;;;10.50;;
56239;SDS011;42154;51.992;5.896;2022-10-31T03:40:12;14.90;;;10.50;;
56239;SDS011;42154;51.992;5.896;2022-10-31T03:42:41;15.52;;;10.13;;
56239;SDS011;42154;51.992;5.896;2022-10-31T03:45:12;16.33;;;10.75;;
56239;SDS011;42154;51.992;5.896;2022-10-31T03:47:41;15.15;;;11.23;;
56239;SDS011;42154;51.992;5.896;2022-10-31T03:50:09;16.50;;;11.35;;
56239;SDS011;42154;51.992;5.896;2022-10-31T03:55:27;17.55;;;11.80;;
56239;SDS011;42154;51.992;5.896;2022-10-31T03:58:03;16.52;;;11.70;;
56239;SDS011;42154;51.992;5.896;2022-10-31T04:00:34;15.25;;;10.77;;
56239;SDS011;42154;51.992;5.896;2022-10-31T04:03:14;14.05;;;10.73;;
56239;SDS011;42154;51.992;5.896;2022-10-31T04:05:52;15.55;;;11.75;;
56239;SDS011;42154;51.992;5.896;2022-10-31T04:08:21;18.65;;;11.43;;
56239;SDS011;42154;51.992;5.896;2022-10-31T04:10:52;15.63;;;10.82;;
56239;SDS011;42154;51.992;5.896;2022-10-31T04:13:22;14.88;;;11.32;;
56239;SDS011;42154;51.992;5.896;2022-10-31T04:16:07;14.32;;;10.68;;
56239;SDS011;42154;51.992;5.896;2022-10-31T04:18:35;16.65;;;11.32;;
56239;SDS011;42154;51.992;5.896;2022-10-31T04:21:03;16.42;;;12.13;;
56239;SDS011;42154;51.992;5.896;2022-10-31T04:23:30;18.05;;;12.52;;
56239;SDS011;42154;51.992;5.896;2022-10-31T04:25:58;15.75;;;11.32;;
56239;SDS011;42154;51.992;5.896;2022-10-31T04:28:24;14.88;;;11.23;;
56239;SDS011;42154;51.992;5.896;2022-10-31T04:30:50;13.95;;;11.20;;
56239;SDS011;42154;51.992;5.896;2022-10-31T04:33:16;16.77;;;11.90;;
56239;SDS011;42154;51.992;5.896;2022-10-31T04:35:44;15.77;;;11.57;;
56239;SDS011;42154;51.992;5.896;2022-10-31T04:38:10;15.80;;;11.73;;
56239;SDS011;42154;51.992;5.896;2022-10-31T04:40:37;16.55;;;12.60;;
56239;SDS011;42154;51.992;5.896;2022-10-31T04:43:38;16.73;;;11.07;;
56239;SDS011;42154;51.992;5.896;2022-10-31T04:46:04;15.07;;;11.98;;
56239;SDS011;42154;51.992;5.896;2022-10-31T04:48:30;14.88;;;11.75;;
56239;SDS011;42154;51.992;5.896;2022-10-31T04:51:00;18.42;;;12.15;;
56239;SDS011;42154;51.992;5.896;2022-10-31T04:53:26;16.63;;;12.25;;
56239;SDS011;42154;51.992;5.896;2022-10-31T04:56:18;16.30;;;11.88;;
56239;SDS011;42154;51.992;5.896;2022-10-31T04:58:48;15.97;;;12.40;;
56239;SDS011;42154;51.992;5.896;2022-10-31T05:01:17;17.80;;;12.05;;
56239;SDS011;42154;51.992;5.896;2022-10-31T05:03:44;17.55;;;12.07;;
56239;SDS011;42154;51.992;5.896;2022-10-31T05:06:10;16.13;;;11.70;;
56239;SDS011;42154;51.992;5.896;2022-10-31T05:08:39;17.55;;;12.35;;
56239;SDS011;42154;51.992;5.896;2022-10-31T05:11:06;17.73;;;12.10;;
56239;SDS011;42154;51.992;5.896;2022-10-31T05:13:32;14.98;;;12.07;;
56239;SDS011;42154;51.992;5.896;2022-10-31T05:16:30;15.05;;;11.43;;
56239;SDS011;42154;51.992;5.896;2022-10-31T05:19:14;18.15;;;13.02;;
56239;SDS011;42154;51.992;5.896;2022-10-31T05:22:02;17.73;;;12.30;;
56239;SDS011;42154;51.992;5.896;2022-10-31T05:24:28;21.40;;;12.85;;
56239;SDS011;42154;51.992;5.896;2022-10-31T05:26:54;18.20;;;12.70;;
56239;SDS011;42154;51.992;5.896;2022-10-31T05:29:19;18.67;;;11.90;;
56239;SDS011;42154;51.992;5.896;2022-10-31T05:31:46;18.55;;;12.75;;
56239;SDS011;42154;51.992;5.896;2022-10-31T05:34:32;18.67;;;13.68;;
56239;SDS011;42154;51.992;5.896;2022-10-31T05:37:16;19.38;;;13.23;;
56239;SDS011;42154;51.992;5.896;2022-10-31T05:39:42;20.60;;;13.93;;
56239;SDS011;42154;51.992;5.896;2022-10-31T05:42:12;19.17;;;13.02;;
56239;SDS011;42154;51.992;5.896;2022-10-31T05:44:39;17.88;;;13.02;;
56239;SDS011;42154;51.992;5.896;2022-10-31T05:47:15;17.92;;;12.63;;
56239;SDS011;42154;51.992;5.896;2022-10-31T05:50:10;16.80;;;12.45;;
56239;SDS011;42154;51.992;5.896;2022-10-31T05:52:47;16.15;;;12.77;;
56239;SDS011;42154;51.992;5.896;2022-10-31T05:55:26;17.63;;;13.20;;
56239;SDS011;42154;51.992;5.896;2022-10-31T05:58:07;18.58;;;13.40;;
56239;SDS011;42154;51.992;5.896;2022-10-31T06:00:36;21.05;;;14.32;;
56239;SDS011;42154;51.992;5.896;2022-10-31T06:03:07;21.15;;;14.48;;
56239;SDS011;42154;51.992;5.896;2022-10-31T06:05:45;21.40;;;14.10;;
56239;SDS011;42154;51.992;5.896;2022-10-31T06:08:12;24.48;;;15.00;;
56239;SDS011;42154;51.992;5.896;2022-10-31T06:10:39;19.33;;;14.75;;
56239;SDS011;42154;51.992;5.896;2022-10-31T06:13:05;18.67;;;13.98;;
56239;SDS011;42154;51.992;5.896;2022-10-31T06:15:41;18.02;;;14.07;;
56239;SDS011;42154;51.992;5.896;2022-10-31T06:18:07;19.30;;;13.98;;
56239;SDS011;42154;51.992;5.896;2022-10-31T06:20:42;18.45;;;13.90;;
56239;SDS011;42154;51.992;5.896;2022-10-31T06:23:09;20.45;;;14.30;;
56239;SDS011;42154;51.992;5.896;2022-10-31T06:25:36;17.55;;;12.95;;
56239;SDS011;42154;51.992;5.896;2022-10-31T06:28:03;21.65;;;14.48;;
56239;SDS011;42154;51.992;5.896;2022-10-31T06:30:47;20.50;;;14.32;;
56239;SDS011;42154;51.992;5.896;2022-10-31T06:33:13;22.38;;;14.68;;
56239;SDS011;42154;51.992;5.896;2022-10-31T06:35:46;19.83;;;13.65;;
56239;SDS011;42154;51.992;5.896;2022-10-31T06:38:14;19.70;;;13.43;;
56239;SDS011;42154;51.992;5.896;2022-10-31T06:40:41;17.77;;;13.10;;
56239;SDS011;42154;51.992;5.896;2022-10-31T06:43:26;17.23;;;12.75;;
56239;SDS011;42154;51.992;5.896;2022-10-31T06:46:11;17.45;;;12.40;;
56239;SDS011;42154;51.992;5.896;2022-10-31T06:48:42;20.05;;;13.35;;
56239;SDS011;42154;51.992;5.896;2022-10-31T06:51:31;21.13;;;14.80;;
56239;SDS011;42154;51.992;5.896;2022-10-31T06:53:58;20.10;;;14.85;;
56239;SDS011;42154;51.992;5.896;2022-10-31T06:56:25;20.38;;;14.95;;
56239;SDS011;42154;51.992;5.896;2022-10-31T06:58:54;21.55;;;14.90;;
56239;SDS011;42154;51.992;5.896;2022-10-31T07:01:37;20.48;;;14.82;;
56239;SDS011;42154;51.992;5.896;2022-10-31T07:04:05;24.05;;;15.48;;
56239;SDS011;42154;51.992;5.896;2022-10-31T07:06:34;21.88;;;14.98;;
56239;SDS011;42154;51.992;5.896;2022-10-31T07:09:00;23.05;;;17.48;;
56239;SDS011;42154;51.992;5.896;2022-10-31T07:11:26;25.05;;;16.85;;
56239;SDS011;42154;51.992;5.896;2022-10-31T07:13:54;24.70;;;16.55;;
56239;SDS011;42154;51.992;5.896;2022-10-31T07:16:20;21.85;;;15.95;;
56239;SDS011;42154;51.992;5.896;2022-10-31T07:18:45;24.15;;;15.57;;
56239;SDS011;42154;51.992;5.896;2022-10-31T07:21:11;22.58;;;15.20;;
56239;SDS011;42154;51.992;5.896;2022-10-31T07:23:38;23.48;;;15.18;;
56239;SDS011;42154;51.992;5.896;2022-10-31T07:26:27;22.20;;;14.77;;
56239;SDS011;42154;51.992;5.896;2022-10-31T07:28:53;21.20;;;14.40;;
56239;SDS011;42154;51.992;5.896;2022-10-31T07:31:21;21.10;;;15.27;;
56239;SDS011;42154;51.992;5.896;2022-10-31T07:33:48;21.17;;;14.93;;
56239;SDS011;42154;51.992;5.896;2022-10-31T07:36:42;25.75;;;17.60;;
56239;SDS011;42154;51.992;5.896;2022-10-31T07:39:11;26.15;;;18.05;;
56239;SDS011;42154;51.992;5.896;2022-10-31T07:41:37;21.42;;;15.15;;
56239;SDS011;42154;51.992;5.896;2022-10-31T07:44:02;21.88;;;14.40;;
56239;SDS011;42154;51.992;5.896;2022-10-31T07:46:28;17.67;;;13.77;;
56239;SDS011;42154;51.992;5.896;2022-10-31T07:49:13;18.00;;;14.32;;
56239;SDS011;42154;51.992;5.896;2022-10-31T07:52:01;20.23;;;13.70;;
56239;SDS011;42154;51.992;5.896;2022-10-31T07:54:46;20.02;;;13.32;;
56239;SDS011;42154;51.992;5.896;2022-10-31T07:57:11;17.40;;;12.80;;
56239;SDS011;42154;51.992;5.896;2022-10-31T07:59:37;16.27;;;11.75;;
56239;SDS011;42154;51.992;5.896;2022-10-31T08:02:05;17.73;;;12.48;;
56239;SDS011;42154;51.992;5.896;2022-10-31T08:04:30;17.58;;;12.90;;
56239;SDS011;42154;51.992;5.896;2022-10-31T08:07:22;19.25;;;13.75;;
56239;SDS011;42154;51.992;5.896;2022-10-31T08:09:55;17.45;;;13.68;;
56239;SDS011;42154;51.992;5.896;2022-10-31T08:12:25;18.23;;;12.85;;
56239;SDS011;42154;51.992;5.896;2022-10-31T08:14:52;18.90;;;12.70;;
56239;SDS011;42154;51.992;5.896;2022-10-31T08:17:18;19.75;;;12.70;;
56239;SDS011;42154;51.992;5.896;2022-10-31T08:19:53;20.02;;;13.27;;
56239;SDS011;42154;51.992;5.896;2022-10-31T08:22:24;19.90;;;13.07;;
56239;SDS011;42154;51.992;5.896;2022-10-31T08:24:49;18.33;;;12.35;;
56239;SDS011;42154;51.992;5.896;2022-10-31T08:27:16;17.45;;;12.48;;
56239;SDS011;42154;51.992;5.896;2022-10-31T08:29:42;19.85;;;14.32;;
56239;SDS011;42154;51.992;5.896;2022-10-31T08:32:08;17.98;;;13.45;;
56239;SDS011;42154;51.992;5.896;2022-10-31T08:34:52;26.33;;;16.20;;
56239;SDS011;42154;51.992;5.896;2022-10-31T08:37:55;26.10;;;17.25;;
56239;SDS011;42154;51.992;5.896;2022-10-31T08:40:25;23.75;;;15.52;;
56239;SDS011;42154;51.992;5.896;2022-10-31T08:42:59;25.58;;;17.25;;
56239;SDS011;42154;51.992;5.896;2022-10-31T08:45:30;28.02;;;18.73;;
56239;SDS011;42154;51.992;5.896;2022-10-31T08:47:58;23.02;;;16.02;;
56239;SDS011;42154;51.992;5.896;2022-10-31T08:50:44;25.92;;;17.70;;
56239;SDS011;42154;51.992;5.896;2022-10-31T08:53:15;25.63;;;17.92;;
56239;SDS011;42154;51.992;5.896;2022-10-31T08:55:46;23.58;;;16.13;;
56239;SDS011;42154;51.992;5.896;2022-10-31T08:58:23;22.90;;;15.13;;
56239;SDS011;42154;51.992;5.896;2022-10-31T09:00:53;21.25;;;14.57;;
56239;SDS011;42154;51.992;5.896;2022-10-31T09:03:25;21.23;;;13.38;;
56239;SDS011;42154;51.992;5.896;2022-10-31T09:05:59;21.50;;;14.75;;
56239;SDS011;42154;51.992;5.896;2022-10-31T09:08:29;19.35;;;13.00;;
56239;SDS011;42154;51.992;5.896;2022-10-31T09:10:56;26.02;;;18.27;;
56239;SDS011;42154;51.992;5.896;2022-10-31T09:13:49;22.27;;;16.02;;
56239;SDS011;42154;51.992;5.896;2022-10-31T09:16:33;20.35;;;14.27;;
56239;SDS011;42154;51.992;5.896;2022-10-31T09:19:00;19.80;;;14.10;;
56239;SDS011;42154;51.992;5.896;2022-10-31T09:21:26;17.92;;;12.07;;
56239;SDS011;42154;51.992;5.896;2022-10-31T09:23:52;16.65;;;11.88;;
56239;SDS011;42154;51.992;5.896;2022-10-31T09:26:19;19.90;;;12.45;;
56239;SDS011;42154;51.992;5.896;2022-10-31T09:29:07;17.05;;;11.35;;
56239;SDS011;42154;51.992;5.896;2022-10-31T09:31:35;18.73;;;12.75;;
56239;SDS011;42154;51.992;5.896;2022-10-31T09:34:09;13.73;;;10.75;;
56239;SDS011;42154;51.992;5.896;2022-10-31T09:36:35;15.88;;;11.85;;
56239;SDS011;42154;51.992;5.896;2022-10-31T09:39:12;21.95;;;15.25;;
56239;SDS011;42154;51.992;5.896;2022-10-31T09:41:44;26.63;;;18.63;;
56239;SDS011;42154;51.992;5.896;2022-10-31T09:47:49;22.65;;;15.15;;
56239;SDS011;42154;51.992;5.896;2022-10-31T09:50:42;16.85;;;12.55;;
56239;SDS011;42154;51.992;5.896;2022-10-31T09:56:21;19.05;;;13.15;;
56239;SDS011;42154;51.992;5.896;2022-10-31T09:58:54;17.30;;;12.85;;
56239;SDS011;42154;51.992;5.896;2022-10-31T10:17:37;24.40;;;16.83;;
56239;SDS011;42154;51.992;5.896;2022-10-31T10:19:55;23.55;;;14.98;;
56239;SDS011;42154;51.992;5.896;2022-10-31T10:25:22;26.30;;;17.60;;
56239;SDS011;42154;51.992;5.896;2022-10-31T10:30:59;21.10;;;15.95;;
56239;SDS011;42154;51.992;5.896;2022-10-31T10:36:15;22.98;;;14.75;;
56239;SDS011;42154;51.992;5.896;2022-10-31T10:41:21;25.15;;;16.67;;
56239;SDS011;42154;51.992;5.896;2022-10-31T10:43:48;22.58;;;16.00;;
56239;SDS011;42154;51.992;5.896;2022-10-31T10:54:41;21.52;;;13.98;;
56239;SDS011;42154;51.992;5.896;2022-10-31T11:00:01;29.88;;;16.83;;
56239;SDS011;42154;51.992;5.896;2022-10-31T11:02:40;23.77;;;15.35;;
56239;SDS011;42154;51.992;5.896;2022-10-31T11:05:08;27.92;;;17.90;;
56239;SDS011;42154;51.992;5.896;2022-10-31T11:07:43;27.13;;;17.45;;
56239;SDS011;42154;51.992;5.896;2022-10-31T11:10:13;25.05;;;14.43;;
56239;SDS011;42154;51.992;5.896;2022-10-31T11:12:40;28.25;;;18.45;;
56239;SDS011;42154;51.992;5.896;2022-10-31T11:15:17;30.75;;;20.25;;
56239;SDS011;42154;51.992;5.896;2022-10-31T11:22:43;29.98;;;20.05;;
56239;SDS011;42154;51.992;5.896;2022-10-31T11:27:45;31.95;;;20.67;;
56239;SDS011;42154;51.992;5.896;2022-10-31T11:30:14;29.35;;;19.52;;
56239;SDS011;42154;51.992;5.896;2022-10-31T11:32:45;33.08;;;19.38;;
56239;SDS011;42154;51.992;5.896;2022-10-31T11:35:16;32.92;;;19.67;;
56239;SDS011;42154;51.992;5.896;2022-10-31T11:37:44;36.42;;;22.33;;
56239;SDS011;42154;51.992;5.896;2022-10-31T11:40:19;32.70;;;20.55;;
56239;SDS011;42154;51.992;5.896;2022-10-31T11:42:47;32.50;;;18.92;;
56239;SDS011;42154;51.992;5.896;2022-10-31T11:45:19;27.15;;;18.00;;
56239;SDS011;42154;51.992;5.896;2022-10-31T11:47:53;35.15;;;19.80;;
56239;SDS011;42154;51.992;5.896;2022-10-31T11:50:30;37.88;;;22.88;;
56239;SDS011;42154;51.992;5.896;2022-10-31T11:53:02;33.90;;;21.13;;
56239;SDS011;42154;51.992;5.896;2022-10-31T11:58:17;28.58;;;17.63;;
56239;SDS011;42154;51.992;5.896;2022-10-31T12:00:48;31.70;;;18.27;;
56239;SDS011;42154;51.992;5.896;2022-10-31T12:08:53;29.48;;;16.92;;
56239;SDS011;42154;51.992;5.896;2022-10-31T12:12:05;31.17;;;19.27;;
56239;SDS011;42154;51.992;5.896;2022-10-31T12:17:16;30.30;;;18.60;;
56239;SDS011;42154;51.992;5.896;2022-10-31T12:25:14;34.13;;;20.95;;
56239;SDS011;42154;51.992;5.896;2022-10-31T12:47:17;25.65;;;17.70;;
56239;SDS011;42154;51.992;5.896;2022-10-31T12:58:02;44.60;;;26.25;;
56239;SDS011;42154;51.992;5.896;2022-10-31T13:00:41;35.33;;;22.67;;
56239;SDS011;42154;51.992;5.896;2022-10-31T13:03:18;34.00;;;21.70;;
56239;SDS011;42154;51.992;5.896;2022-10-31T13:05:54;33.10;;;19.70;;
56239;SDS011;42154;51.992;5.896;2022-10-31T13:08:43;32.58;;;19.92;;
56239;SDS011;42154;51.992;5.896;2022-10-31T13:11:20;37.03;;;21.88;;
56239;SDS011;42154;51.992;5.896;2022-10-31T13:16:40;42.08;;;25.73;;
56239;SDS011;42154;51.992;5.896;2022-10-31T13:19:16;28.65;;;18.98;;
56239;SDS011;42154;51.992;5.896;2022-10-31T13:22:04;34.10;;;19.55;;
56239;SDS011;42154;51.992;5.896;2022-10-31T13:24:35;33.42;;;20.20;;
56239;SDS011;42154;51.992;5.896;2022-10-31T13:27:11;38.70;;;21.65;;
56239;SDS011;42154;51.992;5.896;2022-10-31T13:29:45;36.35;;;19.25;;
56239;SDS011;42154;51.992;5.896;2022-10-31T13:32:15;39.80;;;22.40;;
56239;SDS011;42154;51.992;5.896;2022-10-31T13:34:42;37.47;;;20.33;;
56239;SDS011;42154;51.992;5.896;2022-10-31T13:37:51;35.67;;;23.52;;
56239;SDS011;42154;51.992;5.896;2022-10-31T13:40:39;34.58;;;19.35;;
56239;SDS011;42154;51.992;5.896;2022-10-31T13:43:12;29.60;;;18.10;;
56239;SDS011;42154;51.992;5.896;2022-10-31T13:45:57;29.65;;;18.35;;
56239;SDS011;42154;51.992;5.896;2022-10-31T13:50:56;31.05;;;17.90;;
56239;SDS011;42154;51.992;5.896;2022-10-31T13:53:22;33.90;;;18.77;;
56239;SDS011;42154;51.992;5.896;2022-10-31T14:02:44;29.27;;;19.13;;
56239;SDS011;42154;51.992;5.896;2022-10-31T14:04:45;29.08;;;20.25;;
56239;SDS011;42154;51.992;5.896;2022-10-31T14:07:17;31.92;;;18.27;;
56239;SDS011;42154;51.992;5.896;2022-10-31T14:09:55;29.98;;;18.95;;
56239;SDS011;42154;51.992;5.896;2022-10-31T14:12:42;36.20;;;19.95;;
56239;SDS011;42154;51.992;5.896;2022-10-31T14:17:55;33.97;;;18.45;;
56239;SDS011;42154;51.992;5.896;2022-10-31T14:20:25;30.20;;;17.77;;
56239;SDS011;42154;51.992;5.896;2022-10-31T14:23:28;30.70;;;17.13;;
56239;SDS011;42154;51.992;5.896;2022-10-31T14:28:42;30.27;;;17.85;;
56239;SDS011;42154;51.992;5.896;2022-10-31T14:31:29;29.83;;;17.25;;
56239;SDS011;42154;51.992;5.896;2022-10-31T14:45:18;33.53;;;16.97;;
56239;SDS011;42154;51.992;5.896;2022-10-31T14:50:56;31.48;;;18.92;;
56239;SDS011;42154;51.992;5.896;2022-10-31T14:56:11;26.13;;;17.60;;
56239;SDS011;42154;51.992;5.896;2022-10-31T14:58:38;28.85;;;17.30;;
56239;SDS011;42154;51.992;5.896;2022-10-31T15:01:23;36.50;;;20.08;;
56239;SDS011;42154;51.992;5.896;2022-10-31T15:03:52;33.25;;;16.92;;
56239;SDS011;42154;51.992;5.896;2022-10-31T15:06:22;26.17;;;15.45;;
56239;SDS011;42154;51.992;5.896;2022-10-31T15:08:50;30.83;;;17.08;;
56239;SDS011;42154;51.992;5.896;2022-10-31T15:11:21;31.77;;;18.23;;
56239;SDS011;42154;51.992;5.896;2022-10-31T15:13:52;28.83;;;16.58;;
56239;SDS011;42154;51.992;5.896;2022-10-31T15:16:23;25.65;;;15.07;;
56239;SDS011;42154;51.992;5.896;2022-10-31T15:18:52;30.90;;;17.08;;
56239;SDS011;42154;51.992;5.896;2022-10-31T15:21:19;30.55;;;19.45;;
56239;SDS011;42154;51.992;5.896;2022-10-31T15:23:47;25.92;;;15.55;;
56239;SDS011;42154;51.992;5.896;2022-10-31T15:26:20;29.98;;;17.00;;
56239;SDS011;42154;51.992;5.896;2022-10-31T15:31:54;27.13;;;16.65;;
56239;SDS011;42154;51.992;5.896;2022-10-31T15:34:26;33.47;;;18.13;;
56239;SDS011;42154;51.992;5.896;2022-10-31T15:36:56;28.45;;;16.58;;
56239;SDS011;42154;51.992;5.896;2022-10-31T15:39:22;30.33;;;18.38;;
56239;SDS011;42154;51.992;5.896;2022-10-31T15:41:49;30.17;;;17.50;;
56239;SDS011;42154;51.992;5.896;2022-10-31T15:44:21;30.80;;;18.08;;
56239;SDS011;42154;51.992;5.896;2022-10-31T15:47:06;27.65;;;16.95;;
56239;SDS011;42154;51.992;5.896;2022-10-31T15:49:46;33.17;;;19.50;;
56239;SDS011;42154;51.992;5.896;2022-10-31T15:57:42;31.63;;;18.25;;
56239;SDS011;42154;51.992;5.896;2022-10-31T16:00:25;27.55;;;18.25;;
56239;SDS011;42154;51.992;5.896;2022-10-31T16:03:03;29.08;;;16.38;;
56239;SDS011;42154;51.992;5.896;2022-10-31T16:05:36;24.20;;;15.45;;
56239;SDS011;42154;51.992;5.896;2022-10-31T16:13:36;28.70;;;17.48;;
56239;SDS011;42154;51.992;5.896;2022-10-31T16:16:13;27.98;;;17.15;;
56239;SDS011;42154;51.992;5.896;2022-10-31T16:18:41;28.65;;;17.77;;
56239;SDS011;42154;51.992;5.896;2022-10-31T16:21:08;32.55;;;18.45;;
56239;SDS011;42154;51.992;5.896;2022-10-31T16:23:35;35.13;;;20.65;;
56239;SDS011;42154;51.992;5.896;2022-10-31T16:26:06;30.95;;;16.65;;
56239;SDS011;42154;51.992;5.896;2022-10-31T16:28:32;32.47;;;19.05;;
56239;SDS011;42154;51.992;5.896;2022-10-31T16:30:59;25.60;;;15.27;;
56239;SDS011;42154;51.992;5.896;2022-10-31T16:35:59;23.98;;;16.00;;
56239;SDS011;42154;51.992;5.896;2022-10-31T16:38:27;28.15;;;15.30;;
56239;SDS011;42154;51.992;5.896;2022-10-31T16:40:53;30.52;;;17.45;;
56239;SDS011;42154;51.992;5.896;2022-10-31T16:43:19;34.95;;;20.75;;
56239;SDS011;42154;51.992;5.896;2022-10-31T16:45:48;30.23;;;17.02;;
56239;SDS011;42154;51.992;5.896;2022-10-31T16:48:17;25.10;;;16.58;;
56239;SDS011;42154;51.992;5.896;2022-10-31T16:50:45;32.42;;;17.23;;
56239;SDS011;42154;51.992;5.896;2022-10-31T16:53:12;34.72;;;17.02;;
56239;SDS011;42154;51.992;5.896;2022-10-31T16:55:48;31.92;;;16.92;;
56239;SDS011;42154;51.992;5.896;2022-10-31T16:58:23;24.00;;;14.23;;
56239;SDS011;42154;51.992;5.896;2022-10-31T17:00:51;27.27;;;14.93;;
56239;SDS011;42154;51.992;5.896;2022-10-31T17:03:17;24.35;;;14.07;;
56239;SDS011;42154;51.992;5.896;2022-10-31T17:05:43;27.85;;;18.15;;
56239;SDS011;42154;51.992;5.896;2022-10-31T17:08:09;27.05;;;15.30;;
56239;SDS011;42154;51.992;5.896;2022-10-31T17:10:35;25.83;;;16.23;;
56239;SDS011;42154;51.992;5.896;2022-10-31T17:13:02;23.70;;;15.27;;
56239;SDS011;42154;51.992;5.896;2022-10-31T17:15:36;29.48;;;18.05;;
56239;SDS011;42154;51.992;5.896;2022-10-31T17:18:05;27.80;;;17.73;;
56239;SDS011;42154;51.992;5.896;2022-10-31T17:20:31;30.25;;;17.58;;
56239;SDS011;42154;51.992;5.896;2022-10-31T17:22:57;34.35;;;18.88;;
56239;SDS011;42154;51.992;5.896;2022-10-31T17:25:24;30.20;;;16.50;;
56239;SDS011;42154;51.992;5.896;2022-10-31T17:27:52;25.35;;;13.82;;
56239;SDS011;42154;51.992;5.896;2022-10-31T17:30:19;28.10;;;17.05;;
56239;SDS011;42154;51.992;5.896;2022-10-31T17:32:46;32.13;;;18.20;;
56239;SDS011;42154;51.992;5.896;2022-10-31T17:35:13;31.98;;;17.50;;
56239;SDS011;42154;51.992;5.896;2022-10-31T17:37:41;30.80;;;17.42;;
56239;SDS011;42154;51.992;5.896;2022-10-31T17:40:08;36.60;;;21.15;;
56239;SDS011;42154;51.992;5.896;2022-10-31T17:42:34;31.02;;;17.58;;
56239;SDS011;42154;51.992;5.896;2022-10-31T17:45:00;30.52;;;19.85;;
56239;SDS011;42154;51.992;5.896;2022-10-31T17:47:26;33.42;;;19.40;;
56239;SDS011;42154;51.992;5.896;2022-10-31T17:49:52;32.70;;;18.02;;
56239;SDS011;42154;51.992;5.896;2022-10-31T17:52:18;41.63;;;23.42;;
56239;SDS011;42154;51.992;5.896;2022-10-31T17:54:44;30.30;;;16.80;;